createdAt,value
2023-01-19T00:00:53.290Z,3.33
2023-01-19T00:03:20.154Z,3.50
2023-01-19T00:05:47.143Z,3.88
2023-01-19T00:08:16.925Z,3.55
2023-01-19T00:10:45.776Z,3.60
2023-01-19T00:13:13.654Z,3.75
2023-01-19T00:15:41.457Z,4.18
2023-01-19T00:18:10.643Z,3.45
2023-01-19T00:20:39.746Z,3.45
2023-01-19T00:23:08.326Z,3.75
2023-01-19T00:25:36.293Z,4.07
2023-01-19T00:28:03.291Z,3.80
2023-01-19T00:30:30.680Z,3.80
2023-01-19T00:33:01.120Z,4.00
2023-01-19T00:35:29.877Z,4.55
2023-01-19T00:38:00.390Z,3.30
2023-01-19T00:40:27.879Z,3.45
2023-01-19T00:42:55.037Z,3.50
2023-01-19T00:45:23.293Z,3.20
2023-01-19T00:47:54.837Z,2.80
2023-01-19T00:50:21.802Z,3.72
2023-01-19T00:52:48.660Z,3.13
2023-01-19T00:55:16.182Z,3.55
2023-01-19T00:57:43.638Z,2.95
2023-01-19T01:00:16.209Z,2.97
2023-01-19T01:05:11.890Z,4.28
2023-01-19T01:07:41.466Z,3.45
2023-01-19T01:10:09.489Z,3.67
2023-01-19T01:12:38.242Z,3.55
2023-01-19T01:15:09.302Z,3.50
2023-01-19T01:17:39.727Z,3.08
2023-01-19T01:20:08.105Z,2.85
2023-01-19T01:22:35.517Z,2.90
2023-01-19T01:25:02.838Z,2.95
2023-01-19T01:27:29.658Z,3.00
2023-01-19T01:29:56.821Z,3.13
2023-01-19T01:32:23.717Z,3.00
2023-01-19T01:34:51.067Z,3.17
2023-01-19T01:37:18.713Z,2.90
2023-01-19T01:39:46.319Z,3.22
2023-01-19T01:42:18.146Z,3.08
2023-01-19T01:44:58.560Z,3.28
2023-01-19T01:47:37.732Z,3.30
2023-01-19T01:50:21.650Z,3.50
2023-01-19T01:53:07.299Z,3.30
2023-01-19T01:55:37.090Z,4.70
2023-01-19T01:58:04.314Z,3.00
2023-01-19T02:00:54.553Z,2.75
2023-01-19T02:03:23.114Z,3.13
2023-01-19T02:05:52.185Z,3.08
2023-01-19T02:08:42.415Z,3.17
2023-01-19T02:11:28.271Z,3.00
2023-01-19T02:13:55.514Z,3.22
2023-01-19T02:16:22.402Z,2.72
2023-01-19T02:18:49.303Z,2.85
2023-01-19T02:21:55.169Z,2.78
2023-01-19T02:24:22.068Z,3.40
2023-01-19T02:26:49.057Z,3.17
2023-01-19T02:29:20.314Z,3.13
2023-01-19T02:31:47.716Z,3.60
2023-01-19T02:34:18.996Z,3.58
2023-01-19T02:36:56.072Z,3.35
2023-01-19T02:39:26.268Z,3.05
2023-01-19T02:41:57.503Z,3.00
2023-01-19T02:44:24.800Z,2.70
2023-01-19T02:46:54.242Z,2.85
2023-01-19T02:49:21.104Z,3.17
2023-01-19T02:51:47.953Z,2.90
2023-01-19T02:54:36.660Z,3.60
2023-01-19T02:57:12.445Z,3.40
2023-01-19T03:00:09.802Z,3.97
2023-01-19T03:02:39.738Z,3.25
2023-01-19T03:05:27.203Z,3.63
2023-01-19T03:07:57.026Z,3.40
2023-01-19T03:10:59.134Z,3.00
2023-01-19T03:13:42.722Z,3.40
2023-01-19T03:16:18.462Z,3.10
2023-01-19T03:18:48.058Z,2.92
2023-01-19T03:21:15.069Z,2.97
2023-01-19T03:23:42.366Z,2.95
2023-01-19T03:26:11.106Z,2.83
2023-01-19T03:28:38.529Z,2.75
2023-01-19T03:31:13.329Z,3.20
2023-01-19T03:33:41.607Z,2.88
2023-01-19T03:36:14.782Z,3.30
2023-01-19T03:38:41.960Z,3.05
2023-01-19T03:41:11.367Z,2.95
2023-01-19T03:43:38.476Z,3.15
2023-01-19T03:46:05.463Z,3.53
2023-01-19T03:48:32.815Z,2.92
2023-01-19T03:51:04.030Z,3.10
2023-01-19T03:53:30.981Z,3.03
2023-01-19T03:55:57.849Z,3.10
2023-01-19T03:58:24.787Z,3.03
2023-01-19T04:00:51.664Z,2.70
2023-01-19T04:03:18.752Z,2.92
2023-01-19T04:05:45.850Z,3.53
2023-01-19T04:08:12.935Z,3.15
2023-01-19T04:10:39.904Z,3.17
2023-01-19T04:13:06.801Z,3.40
2023-01-19T04:15:33.655Z,3.17
2023-01-19T04:18:00.799Z,3.25
2023-01-19T04:20:28.296Z,2.80
2023-01-19T04:22:58.628Z,3.15
2023-01-19T04:25:25.684Z,3.10
2023-01-19T04:27:53.524Z,3.10
2023-01-19T04:30:20.894Z,3.20
2023-01-19T04:32:47.792Z,3.05
2023-01-19T04:35:14.802Z,2.80
2023-01-19T04:37:41.646Z,3.40
2023-01-19T04:40:09.210Z,2.85
2023-01-19T04:42:36.046Z,2.80
2023-01-19T04:45:02.999Z,3.10
2023-01-19T04:47:29.794Z,3.03
2023-01-19T04:49:56.730Z,2.85
2023-01-19T04:52:23.703Z,2.92
2023-01-19T04:54:50.592Z,2.88
2023-01-19T04:57:17.410Z,2.90
2023-01-19T04:59:44.323Z,3.22
2023-01-19T05:02:11.702Z,2.92
2023-01-19T05:04:38.615Z,2.75
2023-01-19T05:07:05.423Z,2.85
2023-01-19T05:09:32.514Z,2.83
2023-01-19T05:11:59.324Z,3.20
2023-01-19T05:14:26.203Z,2.83
2023-01-19T05:16:53.002Z,3.00
2023-01-19T05:19:19.883Z,3.15
2023-01-19T05:21:47.026Z,3.42
2023-01-19T05:24:13.929Z,3.08
2023-01-19T05:26:40.829Z,3.63
2023-01-19T05:29:08.266Z,3.25
2023-01-19T05:31:36.106Z,3.20
2023-01-19T05:34:03.758Z,3.17
2023-01-19T05:36:31.908Z,2.88
2023-01-19T05:38:58.854Z,3.70
2023-01-19T05:41:25.783Z,3.00
2023-01-19T05:43:52.699Z,2.97
2023-01-19T05:46:19.591Z,3.10
2023-01-19T05:48:46.474Z,3.00
2023-01-19T05:51:13.431Z,3.35
2023-01-19T05:53:40.230Z,3.20
2023-01-19T05:56:10.820Z,3.65
2023-01-19T05:58:39.490Z,3.20
2023-01-19T06:01:06.975Z,3.15
2023-01-19T06:03:34.182Z,3.28
2023-01-19T06:06:01.289Z,2.97
2023-01-19T06:08:28.340Z,3.45
2023-01-19T06:10:55.202Z,3.33
2023-01-19T06:13:22.189Z,3.08
2023-01-19T06:15:49.077Z,3.60
2023-01-19T06:18:16.051Z,3.45
2023-01-19T06:20:42.967Z,3.33
2023-01-19T06:23:10.579Z,3.40
2023-01-19T06:25:37.431Z,4.10
2023-01-19T06:28:04.514Z,3.72
2023-01-19T06:30:31.464Z,3.60
2023-01-19T06:32:58.709Z,3.60
2023-01-19T06:35:25.716Z,3.20
2023-01-19T06:37:52.910Z,3.88
2023-01-19T06:40:19.785Z,3.30
2023-01-19T06:42:46.827Z,3.45
2023-01-19T06:45:13.602Z,3.90
2023-01-19T06:47:40.608Z,4.10
2023-01-19T06:50:07.947Z,3.75
2023-01-19T06:52:42.097Z,3.95
2023-01-19T06:55:10.875Z,4.10
2023-01-19T06:57:38.851Z,3.70
2023-01-19T07:00:08.546Z,3.72
2023-01-19T07:02:36.079Z,3.50
2023-01-19T07:05:03.152Z,3.50
2023-01-19T07:07:30.116Z,3.28
2023-01-19T07:09:57.059Z,4.18
2023-01-19T07:12:24.069Z,4.13
2023-01-19T07:14:51.397Z,3.80
2023-01-19T07:17:18.430Z,3.90
2023-01-19T07:19:46.465Z,4.30
2023-01-19T07:22:13.348Z,4.00
2023-01-19T07:24:40.148Z,4.60
2023-01-19T07:27:07.100Z,4.32
2023-01-19T07:29:34.017Z,4.55
2023-01-19T07:32:00.896Z,4.38
2023-01-19T07:34:27.943Z,4.28
2023-01-19T07:36:55.999Z,4.07
2023-01-19T07:39:22.893Z,4.40
2023-01-19T07:41:49.887Z,4.07
2023-01-19T07:44:16.826Z,3.88
2023-01-19T07:46:43.788Z,3.80
2023-01-19T07:49:11.502Z,3.50
2023-01-19T07:51:38.387Z,3.67
2023-01-19T07:54:05.727Z,4.10
2023-01-19T07:56:33.913Z,3.25
2023-01-19T07:59:01.044Z,3.00
2023-01-19T08:01:28.082Z,3.63
2023-01-19T08:03:55.045Z,3.78
2023-01-19T08:06:23.183Z,4.00
2023-01-19T08:08:50.392Z,3.90
2023-01-19T08:11:17.454Z,4.22
2023-01-19T08:13:44.347Z,3.47
2023-01-19T08:16:11.469Z,4.13
2023-01-19T08:18:38.405Z,3.28
2023-01-19T08:21:05.464Z,3.88
2023-01-19T08:23:32.475Z,3.30
2023-01-19T08:25:59.702Z,3.55
2023-01-19T08:28:26.636Z,3.65
2023-01-19T08:30:56.460Z,3.60
2023-01-19T08:33:23.815Z,4.00
2023-01-19T08:35:52.302Z,3.28
2023-01-19T08:38:19.252Z,3.30
2023-01-19T08:40:46.111Z,3.38
2023-01-19T08:43:16.945Z,3.60
2023-01-19T08:45:50.201Z,3.70
2023-01-19T08:48:19.599Z,3.70
2023-01-19T08:50:47.601Z,4.22
2023-01-19T08:53:14.625Z,3.90
2023-01-19T08:55:41.667Z,4.55
2023-01-19T08:58:11.244Z,3.42
2023-01-19T09:00:38.996Z,3.45
2023-01-19T09:03:07.368Z,3.67
2023-01-19T09:05:37.271Z,3.08
2023-01-19T09:08:05.271Z,3.83
2023-01-19T09:10:35.871Z,3.42
2023-01-19T09:13:08.134Z,3.90
2023-01-19T09:15:37.536Z,3.85
2023-01-19T09:18:05.773Z,3.33
2023-01-19T09:20:34.632Z,3.35
2023-01-19T09:23:01.686Z,3.47
2023-01-19T09:25:28.719Z,3.50
2023-01-19T09:27:56.246Z,3.40
2023-01-19T09:30:23.267Z,3.78
2023-01-19T09:32:50.314Z,3.80
2023-01-19T09:35:32.999Z,3.92
2023-01-19T09:40:27.518Z,3.42
2023-01-19T09:43:04.978Z,3.47
2023-01-19T09:45:36.522Z,3.25
2023-01-19T09:48:05.895Z,3.28
2023-01-19T09:50:36.512Z,3.33
2023-01-19T09:53:07.460Z,3.28
2023-01-19T09:55:34.356Z,3.80
2023-01-19T09:58:01.475Z,3.33
2023-01-19T10:00:28.697Z,4.28
2023-01-19T10:03:17.572Z,3.30
2023-01-19T10:05:58.893Z,2.92
2023-01-19T10:08:33.429Z,3.08
2023-01-19T10:11:00.499Z,2.90
2023-01-19T10:13:44.137Z,3.00
2023-01-19T10:16:31.626Z,3.03
2023-01-19T10:19:03.240Z,3.33
2023-01-19T10:21:37.570Z,3.07
2023-01-19T10:24:33.283Z,3.33
2023-01-19T10:27:00.258Z,3.40
2023-01-19T10:29:37.703Z,3.45
2023-01-19T10:32:21.204Z,3.38
2023-01-19T10:34:49.196Z,3.42
2023-01-19T10:37:29.280Z,3.40
2023-01-19T10:40:01.834Z,3.40
2023-01-19T10:42:29.828Z,3.25
2023-01-19T10:44:56.662Z,3.40
2023-01-19T10:47:27.374Z,3.70
2023-01-19T10:49:55.102Z,4.10
2023-01-19T10:52:27.650Z,3.95
2023-01-19T10:54:54.579Z,4.20
2023-01-19T10:57:37.752Z,4.15
2023-01-19T11:00:34.800Z,4.22
2023-01-19T11:03:02.184Z,4.20
2023-01-19T11:05:31.235Z,4.50
2023-01-19T11:07:58.240Z,4.28
2023-01-19T11:10:29.222Z,4.25
2023-01-19T11:13:00.925Z,3.97
2023-01-19T11:15:35.883Z,3.80
2023-01-19T11:18:04.235Z,3.92
2023-01-19T11:20:54.883Z,3.95
2023-01-19T11:23:45.160Z,3.83
2023-01-19T11:26:34.534Z,3.20
2023-01-19T11:29:02.681Z,3.38
2023-01-19T11:31:29.591Z,3.60
2023-01-19T11:33:58.726Z,3.58
2023-01-19T11:36:35.752Z,3.22
2023-01-19T11:39:23.778Z,3.05
2023-01-19T11:41:57.120Z,2.92
2023-01-19T11:44:36.324Z,3.50
2023-01-19T11:47:05.053Z,3.00
2023-01-19T11:50:19.759Z,3.25
2023-01-19T11:52:51.372Z,2.97
2023-01-19T11:55:38.832Z,3.15
2023-01-19T11:58:05.884Z,3.15
2023-01-19T12:00:44.977Z,3.35
2023-01-19T12:03:21.781Z,3.53
2023-01-19T12:05:51.320Z,3.40
2023-01-19T12:08:27.000Z,3.35
2023-01-19T12:10:55.179Z,3.53
2023-01-19T12:13:23.699Z,3.60
2023-01-19T12:16:12.751Z,3.42
2023-01-19T12:18:44.706Z,3.67
2023-01-19T12:21:11.758Z,3.40
2023-01-19T12:23:56.435Z,3.95
2023-01-19T12:26:55.183Z,3.60
2023-01-19T12:29:27.950Z,3.95
2023-01-19T12:32:33.529Z,4.13
2023-01-19T12:35:00.672Z,3.88
2023-01-19T12:37:30.291Z,3.95
2023-01-19T12:39:58.514Z,4.00
2023-01-19T12:42:25.672Z,4.32
2023-01-19T12:45:04.833Z,3.80
2023-01-19T12:47:31.944Z,4.07
2023-01-19T12:50:05.892Z,4.28
2023-01-19T12:52:35.045Z,4.80
2023-01-19T12:55:14.969Z,4.35
2023-01-19T12:57:51.748Z,3.97
2023-01-19T13:00:24.734Z,4.15
2023-01-19T13:02:53.646Z,4.10
2023-01-19T13:05:33.558Z,4.03
2023-01-19T13:08:04.857Z,4.03
2023-01-19T13:11:02.812Z,4.07
2023-01-19T13:13:33.390Z,3.78
2023-01-19T13:16:24.889Z,3.75
2023-01-19T13:18:56.067Z,3.58
2023-01-19T13:21:33.168Z,3.72
2023-01-19T13:24:04.487Z,4.28
2023-01-19T13:26:36.049Z,4.18
2023-01-19T13:29:15.686Z,3.95
2023-01-19T13:31:44.586Z,3.65
2023-01-19T13:34:25.723Z,3.92
2023-01-19T13:36:54.409Z,3.80
2023-01-19T13:39:24.020Z,3.65
2023-01-19T13:41:52.022Z,3.63
2023-01-19T13:44:25.509Z,3.60
2023-01-19T13:46:52.664Z,4.10
2023-01-19T13:49:29.652Z,4.60
2023-01-19T13:52:11.858Z,4.50
2023-01-19T13:54:48.220Z,4.20
2023-01-19T13:57:28.966Z,4.55
2023-01-19T14:00:16.883Z,4.28
2023-01-19T14:03:23.827Z,4.30
2023-01-19T14:05:52.496Z,4.82
2023-01-19T14:08:19.648Z,4.88
2023-01-19T14:11:02.540Z,4.68
2023-01-19T14:13:40.166Z,4.45
2023-01-19T14:16:19.982Z,5.18
2023-01-19T14:18:46.970Z,4.57
2023-01-19T14:21:14.534Z,4.82
2023-01-19T14:23:51.337Z,4.25
2023-01-19T14:26:45.507Z,4.05
2023-01-19T14:29:25.919Z,5.10
2023-01-19T14:32:01.653Z,4.60
2023-01-19T14:34:31.605Z,4.40
2023-01-19T14:36:58.820Z,4.53
2023-01-19T14:39:27.282Z,5.40
2023-01-19T14:41:54.410Z,4.75
2023-01-19T14:44:31.365Z,4.47
2023-01-19T14:46:59.677Z,4.30
2023-01-19T14:49:34.108Z,4.00
2023-01-19T14:52:02.906Z,4.30
2023-01-19T14:54:33.810Z,3.50
2023-01-19T14:57:00.875Z,3.72
2023-01-19T14:59:27.868Z,3.67
2023-01-19T15:01:54.849Z,3.67
2023-01-19T15:04:21.899Z,3.58
2023-01-19T15:06:48.780Z,3.45
2023-01-19T15:09:15.995Z,3.22
2023-01-19T15:11:42.946Z,3.53
2023-01-19T15:14:12.570Z,2.97
2023-01-19T15:16:39.543Z,3.10
2023-01-19T15:19:15.191Z,2.95
2023-01-19T15:21:42.435Z,2.88
2023-01-19T15:24:12.965Z,2.85
2023-01-19T15:26:41.263Z,2.97
2023-01-19T15:29:26.629Z,3.15
2023-01-19T15:31:53.801Z,2.83
2023-01-19T15:34:21.035Z,3.30
2023-01-19T15:36:47.916Z,3.15
2023-01-19T15:39:14.964Z,3.58
2023-01-19T15:41:41.873Z,3.33
2023-01-19T15:44:10.710Z,2.88
2023-01-19T15:46:37.777Z,2.88
2023-01-19T15:49:05.824Z,2.83
2023-01-19T15:51:33.200Z,3.15
2023-01-19T15:54:00.142Z,3.20
2023-01-19T15:56:28.776Z,2.67
2023-01-19T15:58:56.250Z,2.30
2023-01-19T16:01:30.835Z,2.85
2023-01-19T16:04:05.772Z,2.42
2023-01-19T16:06:32.996Z,2.25
2023-01-19T16:09:01.173Z,2.45
2023-01-19T16:11:29.278Z,2.50
2023-01-19T16:13:56.224Z,2.33
2023-01-19T16:16:28.170Z,3.10
2023-01-19T16:18:55.606Z,2.35
2023-01-19T16:21:22.593Z,2.60
2023-01-19T16:23:49.702Z,2.40
2023-01-19T16:26:26.595Z,2.30
2023-01-19T16:28:56.652Z,2.50
2023-01-19T16:31:23.778Z,3.53
2023-01-19T16:33:50.685Z,2.90
2023-01-19T16:36:34.167Z,2.80
2023-01-19T16:39:02.390Z,2.80
2023-01-19T16:41:29.407Z,2.42
2023-01-19T16:43:57.192Z,3.20
2023-01-19T16:46:34.499Z,2.75
2023-01-19T16:49:06.182Z,3.00
2023-01-19T16:51:33.338Z,2.88
2023-01-19T16:54:00.300Z,2.90
2023-01-19T16:56:27.327Z,3.17
2023-01-19T16:58:54.882Z,2.80
2023-01-19T17:01:22.083Z,2.55
2023-01-19T17:03:49.096Z,3.45
2023-01-19T17:06:20.519Z,2.80
2023-01-19T17:08:47.501Z,3.42
2023-01-19T17:11:20.446Z,3.40
2023-01-19T17:13:48.537Z,3.47
2023-01-19T17:16:15.548Z,3.50
2023-01-19T17:18:42.502Z,3.65
2023-01-19T17:21:10.002Z,4.18
2023-01-19T17:23:37.514Z,4.55
2023-01-19T17:26:04.701Z,3.97
2023-01-19T17:28:31.654Z,4.07
2023-01-19T17:31:05.857Z,4.50
2023-01-19T17:33:32.812Z,4.20
2023-01-19T17:36:07.539Z,3.88
2023-01-19T17:38:35.099Z,4.25
2023-01-19T17:41:02.332Z,4.68
2023-01-19T17:43:29.307Z,4.38
2023-01-19T17:45:56.318Z,5.25
2023-01-19T17:48:23.437Z,4.50
2023-01-19T17:50:50.570Z,6.00
2023-01-19T17:53:17.668Z,5.95
2023-01-19T17:55:44.630Z,6.00
2023-01-19T17:58:11.607Z,6.28
2023-01-19T18:00:38.600Z,5.90
2023-01-19T18:03:07.817Z,5.93
2023-01-19T18:05:34.801Z,6.28
2023-01-19T18:08:01.939Z,6.60
2023-01-19T18:10:28.905Z,6.38
2023-01-19T18:12:55.812Z,6.05
2023-01-19T18:15:22.610Z,6.22
2023-01-19T18:17:49.535Z,5.72
2023-01-19T18:20:16.851Z,5.40
2023-01-19T18:22:43.790Z,6.32
2023-01-19T18:25:10.709Z,7.13
2023-01-19T18:27:37.501Z,7.88
2023-01-19T18:30:04.975Z,14.40
2023-01-19T18:32:34.240Z,17.15
2023-01-19T18:35:02.567Z,14.55
2023-01-19T18:37:29.457Z,12.35
2023-01-19T18:39:59.633Z,11.40
2023-01-19T18:42:26.792Z,9.82
2023-01-19T18:44:53.697Z,8.02
2023-01-19T18:47:20.716Z,7.28
2023-01-19T18:49:47.817Z,6.80
2023-01-19T18:52:14.826Z,6.32
2023-01-19T18:54:41.752Z,6.82
2023-01-19T18:57:08.545Z,7.05
2023-01-19T18:59:35.410Z,7.50
2023-01-19T19:02:05.160Z,7.90
2023-01-19T19:04:32.048Z,7.43
2023-01-19T19:06:58.950Z,7.70
2023-01-19T19:09:26.026Z,8.05
2023-01-19T19:11:53.148Z,7.50
2023-01-19T19:14:20.003Z,8.05
2023-01-19T19:16:46.952Z,6.38
2023-01-19T19:19:15.408Z,6.47
2023-01-19T19:21:43.007Z,7.13
2023-01-19T19:24:11.461Z,6.88
2023-01-19T19:26:38.354Z,6.60
2023-01-19T19:29:05.357Z,6.18
2023-01-19T19:31:32.350Z,6.97
2023-01-19T19:33:59.396Z,7.93
2023-01-19T19:36:27.090Z,7.53
2023-01-19T19:38:54.022Z,8.38
2023-01-19T19:41:22.735Z,8.25
2023-01-19T19:43:49.771Z,8.20
2023-01-19T19:46:21.098Z,8.88
2023-01-19T19:48:48.483Z,8.63
2023-01-19T19:51:19.041Z,8.15
2023-01-19T19:53:47.466Z,9.02
2023-01-19T19:56:15.367Z,9.45
2023-01-19T19:58:42.570Z,9.70
2023-01-19T20:01:11.280Z,10.38
2023-01-19T20:03:38.399Z,10.35
2023-01-19T20:06:10.294Z,8.82
2023-01-19T20:08:37.309Z,7.82
2023-01-19T20:11:08.687Z,7.80
2023-01-19T20:13:35.971Z,7.40
2023-01-19T20:16:04.103Z,7.93
2023-01-19T20:18:31.581Z,7.57
2023-01-19T20:20:59.072Z,8.30
2023-01-19T20:23:26.286Z,7.55
2023-01-19T20:25:53.192Z,8.38
2023-01-19T20:28:20.124Z,7.90
2023-01-19T20:30:47.292Z,7.70
2023-01-19T20:33:14.223Z,8.63
2023-01-19T20:35:41.080Z,8.27
2023-01-19T20:38:08.637Z,7.97
2023-01-19T20:40:35.546Z,9.10
2023-01-19T20:43:02.428Z,8.73
2023-01-19T20:45:29.356Z,8.30
2023-01-19T20:47:56.463Z,8.27
2023-01-19T20:50:23.404Z,7.88
2023-01-19T20:52:50.311Z,7.50
2023-01-19T20:55:17.991Z,7.18
2023-01-19T20:57:44.848Z,6.60
2023-01-19T21:00:12.200Z,6.53
2023-01-19T21:02:39.391Z,6.35
2023-01-19T21:05:06.852Z,6.82
2023-01-19T21:07:33.887Z,6.55
2023-01-19T21:10:00.744Z,6.50
2023-01-19T21:12:27.545Z,6.25
2023-01-19T21:14:54.570Z,6.70
2023-01-19T21:17:21.481Z,6.55
2023-01-19T21:19:48.434Z,6.85
2023-01-19T21:22:15.447Z,6.25
2023-01-19T21:24:44.457Z,6.80
2023-01-19T21:27:11.601Z,6.30
2023-01-19T21:29:38.402Z,6.22
2023-01-19T21:32:05.551Z,6.45
2023-01-19T21:34:32.518Z,6.25
2023-01-19T21:36:59.441Z,6.38
2023-01-19T21:39:26.342Z,6.90
2023-01-19T21:41:53.184Z,6.32
2023-01-19T21:44:20.116Z,6.68
2023-01-19T21:46:47.056Z,5.88
2023-01-19T21:49:18.101Z,5.40
2023-01-19T21:51:46.031Z,6.30
2023-01-19T21:54:13.986Z,5.72
2023-01-19T21:56:43.240Z,5.82
2023-01-19T21:59:14.667Z,6.28
2023-01-19T22:01:42.629Z,5.82
2023-01-19T22:04:09.755Z,5.88
2023-01-19T22:06:36.659Z,6.72
2023-01-19T22:09:03.870Z,5.82
2023-01-19T22:11:31.057Z,6.00
2023-01-19T22:13:59.735Z,5.78
2023-01-19T22:16:26.881Z,5.95
2023-01-19T22:18:57.525Z,5.72
2023-01-19T22:21:25.944Z,6.13
2023-01-19T22:23:54.383Z,6.65
2023-01-19T22:26:21.491Z,5.18
2023-01-19T22:28:48.542Z,5.97
2023-01-19T22:31:17.054Z,6.22
2023-01-19T22:33:44.142Z,6.07
2023-01-19T22:36:20.981Z,5.70
2023-01-19T22:39:00.959Z,5.90
2023-01-19T22:41:32.417Z,6.28
2023-01-19T22:44:01.135Z,6.32
2023-01-19T22:46:29.592Z,6.10
2023-01-19T22:48:56.863Z,5.85
2023-01-19T22:51:24.157Z,6.18
2023-01-19T22:53:51.298Z,6.07
2023-01-19T22:56:19.758Z,6.05
2023-01-19T22:58:46.867Z,5.45
2023-01-19T23:01:18.632Z,6.22
2023-01-19T23:03:45.637Z,5.70
2023-01-19T23:06:14.165Z,5.38
2023-01-19T23:08:41.517Z,4.85
2023-01-19T23:11:10.498Z,5.22
2023-01-19T23:13:37.637Z,5.25
2023-01-19T23:16:05.654Z,4.80
2023-01-19T23:18:32.981Z,5.75
2023-01-19T23:21:07.542Z,5.80
2023-01-19T23:23:34.892Z,5.68
2023-01-19T23:26:09.455Z,4.72
2023-01-19T23:28:39.257Z,4.72
2023-01-19T23:31:33.177Z,4.72
2023-01-19T23:34:01.806Z,4.45
2023-01-19T23:36:29.854Z,4.15
2023-01-19T23:38:58.674Z,4.40
2023-01-19T23:41:25.757Z,4.95
2023-01-19T23:43:52.652Z,4.15
2023-01-19T23:46:19.605Z,4.30
2023-01-19T23:48:46.535Z,4.15
2023-01-19T23:51:31.952Z,4.35
2023-01-19T23:53:59.364Z,4.75
2023-01-19T23:56:33.678Z,4.07
2023-01-19T23:59:09.462Z,4.60
